Terminal Aerodrome Forecast
Issued by NWS Knoxville/Tri Cities, TN

Home | Current Version | Previous Version | Text Only | Print | Product List | Glossary On
Versions: 1 2 3 4 5 6 7 8 9 10 11 12 13 14 15 16 17 18 19 20 21 22 23 24 25 26 27 28 29 30 31 32 33 34
000
FTUS44 KMRX 052320
TAFTYS
TAF
KTYS 052320Z 0600/0624 04007KT 3SM -RA BR OVC035
     FM060400 05008KT 3SM -RA BR OVC010
     FM061000 06009KT 2SM -RA BR OVC004 WS020/19040KT
     FM061600 07005KT 2SM -RA BR OVC004
     FM062000 25010KT 4SM BR OVC010=

USA.gov is the U.S. government's official web portal to all federal, state and local government web resources and services.